sensor_id;sensor_type;location;lat;lon;timestamp;pressure;altitude;pressure_sealevel;temperature;humidity
46876;BME280;32866;50.160;14.768;2023-03-14T00:00:06;97684.81;;;7.22;100.00
46876;BME280;32866;50.160;14.768;2023-03-14T00:02:33;97686.66;;;7.06;100.00
46876;BME280;32866;50.160;14.768;2023-03-14T00:04:58;97695.75;;;7.13;100.00
46876;BME280;32866;50.160;14.768;2023-03-14T00:07:24;97691.81;;;7.04;100.00
46876;BME280;32866;50.160;14.768;2023-03-14T00:09:53;97714.38;;;6.96;100.00
46876;BME280;32866;50.160;14.768;2023-03-14T00:12:18;97709.97;;;6.89;100.00
46876;BME280;32866;50.160;14.768;2023-03-14T00:14:44;97744.59;;;7.07;100.00
46876;BME280;32866;50.160;14.768;2023-03-14T00:17:09;97711.44;;;6.72;100.00
46876;BME280;32866;50.160;14.768;2023-03-14T00:19:34;97743.25;;;7.12;100.00
46876;BME280;32866;50.160;14.768;2023-03-14T00:22:00;97748.84;;;7.08;100.00
46876;BME280;32866;50.160;14.768;2023-03-14T00:24:25;97764.59;;;7.04;100.00
46876;BME280;32866;50.160;14.768;2023-03-14T00:26:51;97754.84;;;6.75;100.00
46876;BME280;32866;50.160;14.768;2023-03-14T00:29:16;97737.44;;;6.63;100.00
46876;BME280;32866;50.160;14.768;2023-03-14T00:31:41;97733.09;;;6.75;100.00
46876;BME280;32866;50.160;14.768;2023-03-14T00:34:07;97724.75;;;6.69;100.00
46876;BME280;32866;50.160;14.768;2023-03-14T00:36:32;97728.44;;;6.94;100.00
46876;BME280;32866;50.160;14.768;2023-03-14T00:38:57;97710.56;;;6.93;100.00
46876;BME280;32866;50.160;14.768;2023-03-14T00:41:23;97703.63;;;6.92;100.00
46876;BME280;32866;50.160;14.768;2023-03-14T00:43:49;97697.25;;;6.95;100.00
46876;BME280;32866;50.160;14.768;2023-03-14T00:46:15;97686.34;;;6.77;100.00
46876;BME280;32866;50.160;14.768;2023-03-14T00:48:40;97673.91;;;6.39;100.00
46876;BME280;32866;50.160;14.768;2023-03-14T00:51:07;97704.44;;;6.34;100.00
46876;BME280;32866;50.160;14.768;2023-03-14T00:53:37;97707.75;;;6.38;100.00
46876;BME280;32866;50.160;14.768;2023-03-14T00:56:11;97694.16;;;6.38;100.00
46876;BME280;32866;50.160;14.768;2023-03-14T00:58:37;97698.81;;;6.28;100.00
46876;BME280;32866;50.160;14.768;2023-03-14T01:01:10;97691.88;;;6.27;100.00
46876;BME280;32866;50.160;14.768;2023-03-14T01:03:36;97679.22;;;6.42;100.00
46876;BME280;32866;50.160;14.768;2023-03-14T01:06:13;97652.47;;;6.41;100.00
46876;BME280;32866;50.160;14.768;2023-03-14T01:08:39;97635.81;;;6.29;100.00
46876;BME280;32866;50.160;14.768;2023-03-14T01:11:09;97590.59;;;6.23;100.00
46876;BME280;32866;50.160;14.768;2023-03-14T01:13:35;97579.28;;;6.15;100.00
46876;BME280;32866;50.160;14.768;2023-03-14T01:16:05;97548.25;;;6.03;100.00
46876;BME280;32866;50.160;14.768;2023-03-14T01:18:31;97548.13;;;5.98;100.00
46876;BME280;32866;50.160;14.768;2023-03-14T01:20:57;97514.06;;;5.74;100.00
46876;BME280;32866;50.160;14.768;2023-03-14T01:23:23;97540.25;;;6.00;100.00
46876;BME280;32866;50.160;14.768;2023-03-14T01:25:48;97514.91;;;6.12;100.00
46876;BME280;32866;50.160;14.768;2023-03-14T01:28:14;97474.53;;;5.92;100.00
46876;BME280;32866;50.160;14.768;2023-03-14T01:30:39;97451.41;;;5.87;100.00
46876;BME280;32866;50.160;14.768;2023-03-14T01:33:04;97470.50;;;6.15;100.00
46876;BME280;32866;50.160;14.768;2023-03-14T01:35:30;97432.41;;;6.24;100.00
46876;BME280;32866;50.160;14.768;2023-03-14T01:37:55;97352.81;;;5.87;100.00
46876;BME280;32866;50.160;14.768;2023-03-14T01:40:21;97404.03;;;6.07;100.00
46876;BME280;32866;50.160;14.768;2023-03-14T01:42:53;97383.16;;;5.76;100.00
46876;BME280;32866;50.160;14.768;2023-03-14T01:48:22;97515.03;;;5.90;100.00
46876;BME280;32866;50.160;14.768;2023-03-14T01:50:48;97510.31;;;5.81;100.00
46876;BME280;32866;50.160;14.768;2023-03-14T01:53:13;97443.56;;;5.89;100.00
46876;BME280;32866;50.160;14.768;2023-03-14T01:55:40;97475.78;;;6.00;100.00
46876;BME280;32866;50.160;14.768;2023-03-14T01:58:05;97473.16;;;5.78;100.00
46876;BME280;32866;50.160;14.768;2023-03-14T02:00:31;97508.81;;;5.89;100.00
46876;BME280;32866;50.160;14.768;2023-03-14T02:03:01;97507.44;;;5.85;100.00
46876;BME280;32866;50.160;14.768;2023-03-14T02:05:30;97501.25;;;5.84;100.00
46876;BME280;32866;50.160;14.768;2023-03-14T02:08:01;97487.97;;;5.77;100.00
46876;BME280;32866;50.160;14.768;2023-03-14T02:10:31;97512.44;;;5.95;100.00
46876;BME280;32866;50.160;14.768;2023-03-14T02:12:59;97492.53;;;6.08;100.00
46876;BME280;32866;50.160;14.768;2023-03-14T02:15:27;97497.09;;;6.20;100.00
46876;BME280;32866;50.160;14.768;2023-03-14T02:17:52;97455.53;;;6.01;100.00
46876;BME280;32866;50.160;14.768;2023-03-14T02:20:35;97474.41;;;6.32;100.00
46876;BME280;32866;50.160;14.768;2023-03-14T02:23:04;97480.13;;;6.35;100.00
46876;BME280;32866;50.160;14.768;2023-03-14T02:25:52;97463.25;;;6.12;100.00
46876;BME280;32866;50.160;14.768;2023-03-14T02:28:20;97471.09;;;6.01;100.00
46876;BME280;32866;50.160;14.768;2023-03-14T02:30:46;97481.31;;;5.87;100.00
46876;BME280;32866;50.160;14.768;2023-03-14T02:33:15;97468.78;;;5.81;100.00
46876;BME280;32866;50.160;14.768;2023-03-14T02:35:47;97522.16;;;6.24;100.00
46876;BME280;32866;50.160;14.768;2023-03-14T02:38:21;97516.88;;;6.21;100.00
46876;BME280;32866;50.160;14.768;2023-03-14T02:40:49;97495.41;;;6.04;100.00
46876;BME280;32866;50.160;14.768;2023-03-14T02:43:14;97510.66;;;6.11;100.00
46876;BME280;32866;50.160;14.768;2023-03-14T02:48:12;97521.22;;;6.00;100.00
46876;BME280;32866;50.160;14.768;2023-03-14T02:50:38;97511.56;;;5.99;100.00
46876;BME280;32866;50.160;14.768;2023-03-14T02:53:04;97510.31;;;5.81;100.00
46876;BME280;32866;50.160;14.768;2023-03-14T02:55:29;97494.47;;;5.89;100.00
46876;BME280;32866;50.160;14.768;2023-03-14T02:57:55;97500.56;;;6.02;100.00
46876;BME280;32866;50.160;14.768;2023-03-14T03:00:20;97460.94;;;5.92;100.00
46876;BME280;32866;50.160;14.768;2023-03-14T03:02:46;97453.41;;;5.96;100.00
46876;BME280;32866;50.160;14.768;2023-03-14T03:05:11;97467.31;;;6.07;100.00
46876;BME280;32866;50.160;14.768;2023-03-14T03:07:37;97433.91;;;5.79;100.00
46876;BME280;32866;50.160;14.768;2023-03-14T03:10:03;97454.72;;;5.91;100.00
46876;BME280;32866;50.160;14.768;2023-03-14T03:12:29;97401.28;;;5.79;100.00
46876;BME280;32866;50.160;14.768;2023-03-14T03:14:54;97404.13;;;5.66;100.00
46876;BME280;32866;50.160;14.768;2023-03-14T03:17:19;97395.38;;;5.71;100.00
46876;BME280;32866;50.160;14.768;2023-03-14T03:19:45;97408.50;;;5.91;100.00
46876;BME280;32866;50.160;14.768;2023-03-14T03:22:10;97403.53;;;5.81;100.00
46876;BME280;32866;50.160;14.768;2023-03-14T03:24:36;97415.63;;;5.70;100.00
46876;BME280;32866;50.160;14.768;2023-03-14T03:27:01;97423.03;;;5.70;100.00
46876;BME280;32866;50.160;14.768;2023-03-14T03:29:27;97413.50;;;5.65;100.00
46876;BME280;32866;50.160;14.768;2023-03-14T03:31:53;97451.56;;;5.93;100.00
46876;BME280;32866;50.160;14.768;2023-03-14T03:34:18;97442.97;;;5.94;100.00
46876;BME280;32866;50.160;14.768;2023-03-14T03:36:43;97430.88;;;5.77;100.00
46876;BME280;32866;50.160;14.768;2023-03-14T03:39:09;97404.16;;;5.75;100.00
46876;BME280;32866;50.160;14.768;2023-03-14T03:41:34;97381.34;;;5.64;100.00
46876;BME280;32866;50.160;14.768;2023-03-14T03:44:00;97413.94;;;5.91;100.00
46876;BME280;32866;50.160;14.768;2023-03-14T03:46:25;97410.69;;;5.97;100.00
46876;BME280;32866;50.160;14.768;2023-03-14T03:48:56;97415.94;;;5.91;100.00
46876;BME280;32866;50.160;14.768;2023-03-14T03:51:21;97375.03;;;5.67;100.00
46876;BME280;32866;50.160;14.768;2023-03-14T03:53:47;97407.63;;;5.76;100.00
46876;BME280;32866;50.160;14.768;2023-03-14T03:56:12;97411.22;;;5.73;100.00
46876;BME280;32866;50.160;14.768;2023-03-14T03:58:37;97418.47;;;5.57;100.00
46876;BME280;32866;50.160;14.768;2023-03-14T04:01:05;97414.88;;;5.61;100.00
46876;BME280;32866;50.160;14.768;2023-03-14T04:03:31;97407.28;;;5.46;100.00
46876;BME280;32866;50.160;14.768;2023-03-14T04:06:05;97440.22;;;5.76;100.00
46876;BME280;32866;50.160;14.768;2023-03-14T04:08:31;97441.44;;;5.84;100.00
46876;BME280;32866;50.160;14.768;2023-03-14T04:10:57;97451.56;;;5.84;100.00
46876;BME280;32866;50.160;14.768;2023-03-14T04:13:24;97452.91;;;5.61;100.00
46876;BME280;32866;50.160;14.768;2023-03-14T04:15:49;97452.91;;;5.51;100.00
46876;BME280;32866;50.160;14.768;2023-03-14T04:18:15;97425.81;;;5.29;100.00
46876;BME280;32866;50.160;14.768;2023-03-14T04:20:40;97433.56;;;5.49;100.00
46876;BME280;32866;50.160;14.768;2023-03-14T04:23:05;97440.34;;;5.35;100.00
46876;BME280;32866;50.160;14.768;2023-03-14T04:25:31;97453.81;;;5.67;100.00
46876;BME280;32866;50.160;14.768;2023-03-14T04:27:56;97431.63;;;5.59;100.00
46876;BME280;32866;50.160;14.768;2023-03-14T04:30:21;97444.31;;;5.71;100.00
46876;BME280;32866;50.160;14.768;2023-03-14T04:32:47;97449.63;;;5.75;100.00
46876;BME280;32866;50.160;14.768;2023-03-14T04:35:12;97444.44;;;5.68;100.00
46876;BME280;32866;50.160;14.768;2023-03-14T04:37:38;97444.75;;;5.61;100.00
46876;BME280;32866;50.160;14.768;2023-03-14T04:40:03;97432.38;;;5.69;100.00
46876;BME280;32866;50.160;14.768;2023-03-14T04:42:31;97440.22;;;5.76;100.00
46876;BME280;32866;50.160;14.768;2023-03-14T04:44:56;97407.00;;;5.35;100.00
46876;BME280;32866;50.160;14.768;2023-03-14T04:47:22;97439.00;;;5.68;100.00
46876;BME280;32866;50.160;14.768;2023-03-14T04:49:47;97426.03;;;5.53;100.00
46876;BME280;32866;50.160;14.768;2023-03-14T04:52:13;97437.78;;;5.60;100.00
46876;BME280;32866;50.160;14.768;2023-03-14T04:54:38;97397.00;;;5.23;100.00
46876;BME280;32866;50.160;14.768;2023-03-14T04:57:03;97441.81;;;5.27;100.00
46876;BME280;32866;50.160;14.768;2023-03-14T04:59:29;97436.50;;;5.14;100.00
46876;BME280;32866;50.160;14.768;2023-03-14T05:01:54;97433.91;;;5.01;100.00
46876;BME280;32866;50.160;14.768;2023-03-14T05:04:19;97452.53;;;5.22;100.00
46876;BME280;32866;50.160;14.768;2023-03-14T05:06:45;97433.91;;;5.01;100.00
46876;BME280;32866;50.160;14.768;2023-03-14T05:09:10;97442.50;;;5.00;100.00
46876;BME280;32866;50.160;14.768;2023-03-14T05:11:35;97440.09;;;5.02;100.00
46876;BME280;32866;50.160;14.768;2023-03-14T05:14:01;97434.06;;;5.07;100.00
46876;BME280;32866;50.160;14.768;2023-03-14T05:16:26;97434.69;;;5.11;100.00
46876;BME280;32866;50.160;14.768;2023-03-14T05:18:52;97435.94;;;5.19;100.00
46876;BME280;32866;50.160;14.768;2023-03-14T05:21:17;97434.91;;;5.35;100.00
46876;BME280;32866;50.160;14.768;2023-03-14T05:23:42;97429.63;;;5.32;100.00
46876;BME280;32866;50.160;14.768;2023-03-14T05:26:08;97418.44;;;5.39;100.00
46876;BME280;32866;50.160;14.768;2023-03-14T05:28:33;97384.47;;;5.34;100.00
46876;BME280;32866;50.160;14.768;2023-03-14T05:30:58;97413.06;;;5.67;100.00
46876;BME280;32866;50.160;14.768;2023-03-14T05:33:24;97425.47;;;6.05;100.00
46876;BME280;32866;50.160;14.768;2023-03-14T05:35:49;97423.50;;;5.96;100.00
46876;BME280;32866;50.160;14.768;2023-03-14T05:38:15;97403.84;;;5.92;100.00
46876;BME280;32866;50.160;14.768;2023-03-14T05:40:40;97375.31;;;5.87;100.00
46876;BME280;32866;50.160;14.768;2023-03-14T05:43:06;97408.25;;;6.17;100.00
46876;BME280;32866;50.160;14.768;2023-03-14T05:45:33;97394.47;;;6.21;100.00
46876;BME280;32866;50.160;14.768;2023-03-14T05:47:59;97418.91;;;6.39;100.00
46876;BME280;32866;50.160;14.768;2023-03-14T05:50:24;97390.59;;;6.55;100.00
46876;BME280;32866;50.160;14.768;2023-03-14T05:52:49;97420.78;;;6.76;100.00
46876;BME280;32866;50.160;14.768;2023-03-14T05:55:15;97393.66;;;6.48;100.00
46876;BME280;32866;50.160;14.768;2023-03-14T05:57:40;97377.03;;;6.37;100.00
46876;BME280;32866;50.160;14.768;2023-03-14T06:00:06;97414.97;;;6.92;100.00
46876;BME280;32866;50.160;14.768;2023-03-14T06:02:31;97414.09;;;7.19;100.00
46876;BME280;32866;50.160;14.768;2023-03-14T06:04:57;97418.56;;;7.32;100.00
46876;BME280;32866;50.160;14.768;2023-03-14T06:07:22;97417.22;;;7.27;100.00
46876;BME280;32866;50.160;14.768;2023-03-14T06:09:47;97399.13;;;7.15;100.00
46876;BME280;32866;50.160;14.768;2023-03-14T06:12:13;97429.63;;;7.76;100.00
46876;BME280;32866;50.160;14.768;2023-03-14T06:14:38;97405.41;;;7.54;100.00
46876;BME280;32866;50.160;14.768;2023-03-14T06:17:03;97412.25;;;7.89;100.00
46876;BME280;32866;50.160;14.768;2023-03-14T06:19:29;97420.28;;;8.22;100.00
46876;BME280;32866;50.160;14.768;2023-03-14T06:21:54;97407.13;;;8.21;100.00
46876;BME280;32866;50.160;14.768;2023-03-14T06:24:20;97406.19;;;8.24;100.00
46876;BME280;32866;50.160;14.768;2023-03-14T06:26:45;97377.97;;;8.27;100.00
46876;BME280;32866;50.160;14.768;2023-03-14T06:29:11;97420.53;;;8.48;100.00
46876;BME280;32866;50.160;14.768;2023-03-14T06:31:36;97411.56;;;8.33;100.00
46876;BME280;32866;50.160;14.768;2023-03-14T06:34:02;97436.25;;;8.53;100.00
46876;BME280;32866;50.160;14.768;2023-03-14T06:36:27;97423.91;;;8.58;100.00
46876;BME280;32866;50.160;14.768;2023-03-14T06:38:52;97451.78;;;8.77;100.00
46876;BME280;32866;50.160;14.768;2023-03-14T06:41:18;97456.47;;;8.91;100.00
46876;BME280;32866;50.160;14.768;2023-03-14T06:43:43;97432.84;;;8.88;100.00
46876;BME280;32866;50.160;14.768;2023-03-14T06:46:09;97439.19;;;9.15;100.00
46876;BME280;32866;50.160;14.768;2023-03-14T06:48:34;97413.91;;;9.20;100.00
46876;BME280;32866;50.160;14.768;2023-03-14T06:51:00;97428.94;;;9.10;100.00
46876;BME280;32866;50.160;14.768;2023-03-14T06:53:25;97427.00;;;9.16;100.00
46876;BME280;32866;50.160;14.768;2023-03-14T06:55:51;97439.47;;;9.38;100.00
46876;BME280;32866;50.160;14.768;2023-03-14T06:58:16;97413.41;;;9.37;100.00
46876;BME280;32866;50.160;14.768;2023-03-14T07:00:42;97435.28;;;9.78;100.00
46876;BME280;32866;50.160;14.768;2023-03-14T07:03:07;97436.00;;;9.78;100.00
46876;BME280;32866;50.160;14.768;2023-03-14T07:05:32;97442.47;;;9.75;100.00
46876;BME280;32866;50.160;14.768;2023-03-14T07:07:58;97437.72;;;9.76;100.00
46876;BME280;32866;50.160;14.768;2023-03-14T07:10:23;97424.97;;;9.67;100.00
46876;BME280;32866;50.160;14.768;2023-03-14T07:12:49;97456.66;;;10.00;100.00
46876;BME280;32866;50.160;14.768;2023-03-14T07:15:14;97447.22;;;10.01;100.00
46876;BME280;32866;50.160;14.768;2023-03-14T07:17:39;97465.03;;;10.17;100.00
46876;BME280;32866;50.160;14.768;2023-03-14T07:20:05;97472.16;;;10.29;100.00
46876;BME280;32866;50.160;14.768;2023-03-14T07:22:32;97456.69;;;10.26;100.00
46876;BME280;32866;50.160;14.768;2023-03-14T07:24:57;97469.63;;;10.46;100.00
46876;BME280;32866;50.160;14.768;2023-03-14T07:27:22;97436.97;;;10.22;100.00
46876;BME280;32866;50.160;14.768;2023-03-14T07:29:48;97462.31;;;10.37;100.00
46876;BME280;32866;50.160;14.768;2023-03-14T07:32:13;97471.53;;;10.66;100.00
46876;BME280;32866;50.160;14.768;2023-03-14T07:34:41;97479.28;;;10.68;100.00
46876;BME280;32866;50.160;14.768;2023-03-14T07:37:06;97437.75;;;10.49;100.00
46876;BME280;32866;50.160;14.768;2023-03-14T07:39:32;97425.84;;;10.52;100.00
46876;BME280;32866;50.160;14.768;2023-03-14T07:41:57;97417.97;;;10.60;100.00
46876;BME280;32866;50.160;14.768;2023-03-14T07:44:22;97430.34;;;10.55;100.00
46876;BME280;32866;50.160;14.768;2023-03-14T07:46:48;97416.66;;;10.55;100.00
46876;BME280;32866;50.160;14.768;2023-03-14T07:49:13;97415.25;;;10.65;100.00
46876;BME280;32866;50.160;14.768;2023-03-14T07:51:39;97444.78;;;10.82;100.00
46876;BME280;32866;50.160;14.768;2023-03-14T07:54:04;97455.81;;;10.93;100.00
46876;BME280;32866;50.160;14.768;2023-03-14T07:56:29;97450.34;;;10.93;100.00
46876;BME280;32866;50.160;14.768;2023-03-14T07:58:55;97460.13;;;11.05;100.00
46876;BME280;32866;50.160;14.768;2023-03-14T08:01:20;97457.50;;;11.17;100.00
46876;BME280;32866;50.160;14.768;2023-03-14T08:03:45;97468.03;;;11.29;100.00
46876;BME280;32866;50.160;14.768;2023-03-14T08:06:11;97459.38;;;11.42;100.00
46876;BME280;32866;50.160;14.768;2023-03-14T08:08:36;97458.66;;;11.47;100.00
46876;BME280;32866;50.160;14.768;2023-03-14T08:11:05;97472.22;;;11.68;100.00
46876;BME280;32866;50.160;14.768;2023-03-14T08:13:33;97461.41;;;11.96;100.00
46876;BME280;32866;50.160;14.768;2023-03-14T08:15:59;97464.25;;;12.30;100.00
46876;BME280;32866;50.160;14.768;2023-03-14T08:18:24;97466.22;;;12.18;100.00
46876;BME280;32866;50.160;14.768;2023-03-14T08:20:50;97467.28;;;12.49;100.00
46876;BME280;32866;50.160;14.768;2023-03-14T08:23:15;97439.75;;;12.27;100.00
46876;BME280;32866;50.160;14.768;2023-03-14T08:25:40;97465.81;;;12.54;100.00
46876;BME280;32866;50.160;14.768;2023-03-14T08:28:06;97471.78;;;12.52;100.00
46876;BME280;32866;50.160;14.768;2023-03-14T08:30:31;97471.28;;;12.42;100.00
46876;BME280;32866;50.160;14.768;2023-03-14T08:32:57;97475.06;;;12.79;100.00
46876;BME280;32866;50.160;14.768;2023-03-14T08:35:24;97454.06;;;12.76;100.00
46876;BME280;32866;50.160;14.768;2023-03-14T08:37:50;97478.31;;;13.06;100.00
46876;BME280;32866;50.160;14.768;2023-03-14T08:40:17;97479.06;;;13.01;100.00
46876;BME280;32866;50.160;14.768;2023-03-14T08:42:42;97472.81;;;13.00;100.00
46876;BME280;32866;50.160;14.768;2023-03-14T08:45:10;97469.31;;;12.83;100.00
46876;BME280;32866;50.160;14.768;2023-03-14T08:47:36;97458.78;;;12.53;100.00
46876;BME280;32866;50.160;14.768;2023-03-14T08:50:03;97476.03;;;12.65;100.00
46876;BME280;32866;50.160;14.768;2023-03-14T08:52:29;97465.56;;;12.57;100.00
46876;BME280;32866;50.160;14.768;2023-03-14T08:54:55;97475.50;;;12.38;100.00
46876;BME280;32866;50.160;14.768;2023-03-14T08:57:21;97444.47;;;12.15;100.00
46876;BME280;32866;50.160;14.768;2023-03-14T08:59:47;97488.47;;;12.32;100.00
46876;BME280;32866;50.160;14.768;2023-03-14T09:02:12;97488.19;;;12.24;100.00
46876;BME280;32866;50.160;14.768;2023-03-14T09:04:38;97488.78;;;12.56;100.00
46876;BME280;32866;50.160;14.768;2023-03-14T09:07:03;97496.06;;;12.82;100.00
46876;BME280;32866;50.160;14.768;2023-03-14T09:09:28;97483.78;;;12.60;100.00
46876;BME280;32866;50.160;14.768;2023-03-14T09:11:55;97491.81;;;12.98;100.00
46876;BME280;32866;50.160;14.768;2023-03-14T09:14:20;97495.56;;;13.34;100.00
46876;BME280;32866;50.160;14.768;2023-03-14T09:16:46;97465.81;;;12.99;100.00
46876;BME280;32866;50.160;14.768;2023-03-14T09:19:11;97498.06;;;13.21;100.00
46876;BME280;32866;50.160;14.768;2023-03-14T09:21:37;97492.78;;;12.84;100.00
46876;BME280;32866;50.160;14.768;2023-03-14T09:24:04;97464.03;;;12.56;100.00
46876;BME280;32866;50.160;14.768;2023-03-14T09:26:29;97504.31;;;12.82;100.00
46876;BME280;32866;50.160;14.768;2023-03-14T09:28:55;97497.28;;;12.87;100.00
46876;BME280;32866;50.160;14.768;2023-03-14T09:31:20;97494.25;;;12.51;100.00
46876;BME280;32866;50.160;14.768;2023-03-14T09:33:46;97521.03;;;12.73;100.00
46876;BME280;32866;50.160;14.768;2023-03-14T09:36:11;97521.06;;;13.01;100.00
46876;BME280;32866;50.160;14.768;2023-03-14T09:38:36;97520.28;;;12.95;100.00
46876;BME280;32866;50.160;14.768;2023-03-14T09:41:10;97503.53;;;12.76;100.00
46876;BME280;32866;50.160;14.768;2023-03-14T09:43:37;97489.78;;;12.59;100.00
46876;BME280;32866;50.160;14.768;2023-03-14T09:46:03;97508.53;;;12.83;100.00
46876;BME280;32866;50.160;14.768;2023-03-14T09:48:32;97508.78;;;12.74;100.00
46876;BME280;32866;50.160;14.768;2023-03-14T09:51:00;97472.28;;;12.56;100.00
46876;BME280;32866;50.160;14.768;2023-03-14T09:53:37;97465.25;;;12.27;100.00
46876;BME280;32866;50.160;14.768;2023-03-14T09:56:07;97454.22;;;12.21;100.00
46876;BME280;32866;50.160;14.768;2023-03-14T09:58:36;97484.53;;;12.55;100.00
46876;BME280;32866;50.160;14.768;2023-03-14T10:01:03;97488.78;;;12.73;100.00
46876;BME280;32866;50.160;14.768;2023-03-14T10:03:33;97498.03;;;12.65;100.00
46876;BME280;32866;50.160;14.768;2023-03-14T10:05:59;97504.03;;;12.69;100.00
46876;BME280;32866;50.160;14.768;2023-03-14T10:08:25;97488.28;;;12.64;100.00
46876;BME280;32866;50.160;14.768;2023-03-14T10:10:50;97500.53;;;12.62;100.00
46876;BME280;32866;50.160;14.768;2023-03-14T10:13:26;97501.53;;;12.71;100.00
46876;BME280;32866;50.160;14.768;2023-03-14T10:18:17;97503.28;;;12.79;100.00
46876;BME280;32866;50.160;14.768;2023-03-14T10:20:46;97493.28;;;12.76;100.00
46876;BME280;32866;50.160;14.768;2023-03-14T10:25:40;97491.28;;;12.71;100.00
46876;BME280;32866;50.160;14.768;2023-03-14T10:28:22;97464.81;;;12.62;100.00
46876;BME280;32866;50.160;14.768;2023-03-14T10:30:48;97471.53;;;12.50;100.00
46876;BME280;32866;50.160;14.768;2023-03-14T10:35:42;97488.28;;;12.69;100.00
46876;BME280;32866;50.160;14.768;2023-03-14T10:38:12;97483.06;;;12.77;100.00
46876;BME280;32866;50.160;14.768;2023-03-14T10:43:18;97461.03;;;12.60;100.00
46876;BME280;32866;50.160;14.768;2023-03-14T10:45:52;97483.56;;;12.81;100.00
46876;BME280;32866;50.160;14.768;2023-03-14T10:53:25;97494.56;;;12.81;100.00
46876;BME280;32866;50.160;14.768;2023-03-14T10:55:51;97463.78;;;12.49;100.00
46876;BME280;32866;50.160;14.768;2023-03-14T10:58:22;97495.78;;;12.80;100.00
46876;BME280;32866;50.160;14.768;2023-03-14T11:00:53;97471.53;;;12.50;100.00
46876;BME280;32866;50.160;14.768;2023-03-14T11:03:23;97485.56;;;12.64;100.00
46876;BME280;32866;50.160;14.768;2023-03-14T11:05:56;97468.03;;;12.44;100.00
46876;BME280;32866;50.160;14.768;2023-03-14T11:08:45;97493.28;;;12.59;100.00
46876;BME280;32866;50.160;14.768;2023-03-14T11:11:19;97495.03;;;12.62;100.00
46876;BME280;32866;50.160;14.768;2023-03-14T11:16:58;97493.53;;;12.73;100.00
46876;BME280;32866;50.160;14.768;2023-03-14T11:25:15;97497.03;;;12.62;100.00
46876;BME280;32866;50.160;14.768;2023-03-14T11:30:31;97488.25;;;12.41;100.00
46876;BME280;32866;50.160;14.768;2023-03-14T11:38:46;97460.50;;;12.28;100.00
46876;BME280;32866;50.160;14.768;2023-03-14T11:41:20;97474.53;;;12.52;100.00
46876;BME280;32866;50.160;14.768;2023-03-14T11:43:54;97472.28;;;12.73;100.00
46876;BME280;32866;50.160;14.768;2023-03-14T11:46:34;97468.81;;;12.67;100.00
46876;BME280;32866;50.160;14.768;2023-03-14T11:49:25;97469.31;;;12.66;100.00
46876;BME280;32866;50.160;14.768;2023-03-14T11:51:55;97468.81;;;12.67;100.00
46876;BME280;32866;50.160;14.768;2023-03-14T11:56:54;97465.03;;;12.53;100.00
46876;BME280;32866;50.160;14.768;2023-03-14T11:59:31;97452.53;;;12.41;100.00
46876;BME280;32866;50.160;14.768;2023-03-14T12:02:04;97451.53;;;12.33;100.00
46876;BME280;32866;50.160;14.768;2023-03-14T12:04:46;97458.53;;;12.45;100.00
46876;BME280;32866;50.160;14.768;2023-03-14T12:07:20;97458.53;;;12.45;100.00
46876;BME280;32866;50.160;14.768;2023-03-14T12:09:48;97448.28;;;12.34;100.00
46876;BME280;32866;50.160;14.768;2023-03-14T12:12:19;97448.03;;;12.38;100.00
46876;BME280;32866;50.160;14.768;2023-03-14T12:14:52;97447.78;;;12.30;100.00
46876;BME280;32866;50.160;14.768;2023-03-14T12:17:21;97453.03;;;12.34;100.00
46876;BME280;32866;50.160;14.768;2023-03-14T12:20:00;97449.78;;;12.35;100.00
46876;BME280;32866;50.160;14.768;2023-03-14T12:22:28;97453.03;;;12.34;100.00
46876;BME280;32866;50.160;14.768;2023-03-14T12:24:58;97455.25;;;12.30;100.00
46876;BME280;32866;50.160;14.768;2023-03-14T12:28:50;97450.28;;;12.34;100.00
46876;BME280;32866;50.160;14.768;2023-03-14T12:30:49;97431.53;;;12.15;100.00
46876;BME280;32866;50.160;14.768;2023-03-14T12:35:45;97429.56;;;12.44;100.00
46876;BME280;32866;50.160;14.768;2023-03-14T12:38:24;97446.28;;;12.52;100.00
46876;BME280;32866;50.160;14.768;2023-03-14T12:41:16;97448.06;;;12.60;100.00
46876;BME280;32866;50.160;14.768;2023-03-14T12:43:42;97436.59;;;12.68;100.00
46876;BME280;32866;50.160;14.768;2023-03-14T12:48:45;97430.09;;;12.76;100.00
46876;BME280;32866;50.160;14.768;2023-03-14T12:56:34;97432.84;;;12.82;100.00
46876;BME280;32866;50.160;14.768;2023-03-14T13:04:48;97414.09;;;12.52;100.00
46876;BME280;32866;50.160;14.768;2023-03-14T13:07:35;97418.34;;;12.70;100.00
46876;BME280;32866;50.160;14.768;2023-03-14T13:10:18;97376.88;;;12.51;100.00
46876;BME280;32866;50.160;14.768;2023-03-14T13:12:54;97406.59;;;12.70;100.00
46876;BME280;32866;50.160;14.768;2023-03-14T13:15:28;97410.38;;;12.55;100.00
46876;BME280;32866;50.160;14.768;2023-03-14T13:17:59;97400.81;;;12.28;100.00
46876;BME280;32866;50.160;14.768;2023-03-14T13:20:32;97402.09;;;12.27;100.00
46876;BME280;32866;50.160;14.768;2023-03-14T13:22:59;97397.59;;;12.30;100.00
46876;BME280;32866;50.160;14.768;2023-03-14T13:25:29;97396.63;;;12.44;100.00
46876;BME280;32866;50.160;14.768;2023-03-14T13:27:55;97358.91;;;12.39;100.00
46876;BME280;32866;50.160;14.768;2023-03-14T13:30:26;97391.56;;;13.05;100.00
46876;BME280;32866;50.160;14.768;2023-03-14T13:32:52;97402.31;;;13.08;100.00
46876;BME280;32866;50.160;14.768;2023-03-14T13:35:22;97396.06;;;13.19;100.00
46876;BME280;32866;50.160;14.768;2023-03-14T13:37:53;97367.59;;;12.88;100.00
46876;BME280;32866;50.160;14.768;2023-03-14T13:40:24;97386.31;;;13.12;100.00
46876;BME280;32866;50.160;14.768;2023-03-14T13:43:00;97395.28;;;13.24;100.00